sensor_id;sensor_type;location;lat;lon;timestamp;P1;durP1;ratioP1;P2;durP2;ratioP2
22113;SDS011;11223;49.968;9.062;2023-03-01T00:00:39;10.50;;;7.57;;
22113;SDS011;11223;49.968;9.062;2023-03-01T00:03:05;12.30;;;9.48;;
22113;SDS011;11223;49.968;9.062;2023-03-01T00:05:31;13.00;;;9.57;;
22113;SDS011;11223;49.968;9.062;2023-03-01T00:07:57;12.77;;;8.50;;
22113;SDS011;11223;49.968;9.062;2023-03-01T00:10:23;13.32;;;8.98;;
22113;SDS011;11223;49.968;9.062;2023-03-01T00:12:49;13.50;;;8.30;;
22113;SDS011;11223;49.968;9.062;2023-03-01T00:15:14;13.40;;;7.40;;
22113;SDS011;11223;49.968;9.062;2023-03-01T00:17:41;11.10;;;8.20;;
22113;SDS011;11223;49.968;9.062;2023-03-01T00:20:08;10.63;;;8.40;;
22113;SDS011;11223;49.968;9.062;2023-03-01T00:22:35;13.23;;;8.88;;
22113;SDS011;11223;49.968;9.062;2023-03-01T00:25:02;15.43;;;8.60;;
22113;SDS011;11223;49.968;9.062;2023-03-01T00:27:28;10.70;;;8.25;;
22113;SDS011;11223;49.968;9.062;2023-03-01T00:29:54;11.13;;;9.17;;
22113;SDS011;11223;49.968;9.062;2023-03-01T00:32:20;11.70;;;7.57;;
22113;SDS011;11223;49.968;9.062;2023-03-01T00:34:45;13.50;;;8.50;;
22113;SDS011;11223;49.968;9.062;2023-03-01T00:37:19;10.43;;;7.78;;
22113;SDS011;11223;49.968;9.062;2023-03-01T00:39:45;12.15;;;9.30;;
22113;SDS011;11223;49.968;9.062;2023-03-01T00:42:11;12.00;;;8.33;;
22113;SDS011;11223;49.968;9.062;2023-03-01T00:44:36;10.40;;;7.67;;
22113;SDS011;11223;49.968;9.062;2023-03-01T00:47:02;12.93;;;8.70;;
22113;SDS011;11223;49.968;9.062;2023-03-01T00:49:28;11.93;;;8.80;;
22113;SDS011;11223;49.968;9.062;2023-03-01T00:51:53;10.20;;;8.20;;
22113;SDS011;11223;49.968;9.062;2023-03-01T00:54:19;11.87;;;7.30;;
22113;SDS011;11223;49.968;9.062;2023-03-01T00:56:45;9.80;;;7.47;;
22113;SDS011;11223;49.968;9.062;2023-03-01T00:59:10;10.70;;;5.90;;
22113;SDS011;11223;49.968;9.062;2023-03-01T01:01:36;15.87;;;6.83;;
22113;SDS011;11223;49.968;9.062;2023-03-01T01:04:03;13.27;;;7.30;;
22113;SDS011;11223;49.968;9.062;2023-03-01T01:06:31;10.88;;;6.07;;
22113;SDS011;11223;49.968;9.062;2023-03-01T01:08:59;8.52;;;5.80;;
22113;SDS011;11223;49.968;9.062;2023-03-01T01:11:26;11.20;;;6.30;;
22113;SDS011;11223;49.968;9.062;2023-03-01T01:13:52;6.88;;;5.70;;
22113;SDS011;11223;49.968;9.062;2023-03-01T01:16:19;10.53;;;7.27;;
22113;SDS011;11223;49.968;9.062;2023-03-01T01:18:46;10.18;;;7.13;;
22113;SDS011;11223;49.968;9.062;2023-03-01T01:21:13;10.77;;;7.10;;
22113;SDS011;11223;49.968;9.062;2023-03-01T01:23:40;14.20;;;7.40;;
22113;SDS011;11223;49.968;9.062;2023-03-01T01:26:08;8.25;;;7.05;;
22113;SDS011;11223;49.968;9.062;2023-03-01T01:28:36;9.48;;;6.75;;
22113;SDS011;11223;49.968;9.062;2023-03-01T01:31:02;10.85;;;6.82;;
22113;SDS011;11223;49.968;9.062;2023-03-01T01:33:28;9.63;;;6.68;;
22113;SDS011;11223;49.968;9.062;2023-03-01T01:35:53;8.80;;;6.10;;
22113;SDS011;11223;49.968;9.062;2023-03-01T01:38:19;7.80;;;6.00;;
22113;SDS011;11223;49.968;9.062;2023-03-01T01:40:46;6.75;;;5.75;;
22113;SDS011;11223;49.968;9.062;2023-03-01T01:45:50;9.65;;;6.95;;
22113;SDS011;11223;49.968;9.062;2023-03-01T01:48:20;11.52;;;6.68;;
22113;SDS011;11223;49.968;9.062;2023-03-01T01:50:57;8.52;;;6.78;;
22113;SDS011;11223;49.968;9.062;2023-03-01T01:53:26;8.02;;;7.18;;
22113;SDS011;11223;49.968;9.062;2023-03-01T01:55:55;11.00;;;6.40;;
22113;SDS011;11223;49.968;9.062;2023-03-01T01:58:26;8.57;;;6.90;;
22113;SDS011;11223;49.968;9.062;2023-03-01T02:00:54;7.07;;;5.70;;
22113;SDS011;11223;49.968;9.062;2023-03-01T02:03:25;8.27;;;6.23;;
22113;SDS011;11223;49.968;9.062;2023-03-01T02:06:03;10.82;;;5.70;;
22113;SDS011;11223;49.968;9.062;2023-03-01T02:08:36;9.63;;;6.80;;
22113;SDS011;11223;49.968;9.062;2023-03-01T02:11:04;6.40;;;4.80;;
22113;SDS011;11223;49.968;9.062;2023-03-01T02:13:33;10.77;;;6.00;;
22113;SDS011;11223;49.968;9.062;2023-03-01T02:16:18;11.55;;;7.13;;
22113;SDS011;11223;49.968;9.062;2023-03-01T02:18:45;11.15;;;7.18;;
22113;SDS011;11223;49.968;9.062;2023-03-01T02:23:41;12.73;;;6.80;;
22113;SDS011;11223;49.968;9.062;2023-03-01T02:28:59;10.00;;;7.60;;
22113;SDS011;11223;49.968;9.062;2023-03-01T02:31:25;10.27;;;7.27;;
22113;SDS011;11223;49.968;9.062;2023-03-01T02:34:17;8.30;;;6.53;;
22113;SDS011;11223;49.968;9.062;2023-03-01T02:39:33;8.40;;;6.95;;
22113;SDS011;11223;49.968;9.062;2023-03-01T02:42:06;10.20;;;7.18;;
22113;SDS011;11223;49.968;9.062;2023-03-01T02:44:34;10.10;;;6.60;;
22113;SDS011;11223;49.968;9.062;2023-03-01T02:47:01;9.27;;;6.40;;
22113;SDS011;11223;49.968;9.062;2023-03-01T02:49:30;10.60;;;7.00;;
22113;SDS011;11223;49.968;9.062;2023-03-01T02:57:27;9.10;;;7.53;;
22113;SDS011;11223;49.968;9.062;2023-03-01T02:59:54;9.52;;;6.30;;
22113;SDS011;11223;49.968;9.062;2023-03-01T03:02:24;10.52;;;6.43;;
22113;SDS011;11223;49.968;9.062;2023-03-01T03:05:08;10.55;;;6.50;;
22113;SDS011;11223;49.968;9.062;2023-03-01T03:07:38;8.38;;;5.57;;
22113;SDS011;11223;49.968;9.062;2023-03-01T03:10:06;10.90;;;7.50;;
22113;SDS011;11223;49.968;9.062;2023-03-01T03:12:33;9.25;;;6.68;;
22113;SDS011;11223;49.968;9.062;2023-03-01T03:14:59;11.17;;;9.00;;
22113;SDS011;11223;49.968;9.062;2023-03-01T03:17:25;10.27;;;6.30;;
22113;SDS011;11223;49.968;9.062;2023-03-01T03:19:50;9.87;;;6.60;;
22113;SDS011;11223;49.968;9.062;2023-03-01T03:22:16;8.50;;;7.07;;
22113;SDS011;11223;49.968;9.062;2023-03-01T03:24:42;9.48;;;6.80;;
22113;SDS011;11223;49.968;9.062;2023-03-01T03:27:08;10.67;;;8.07;;
22113;SDS011;11223;49.968;9.062;2023-03-01T03:29:33;7.93;;;7.07;;
22113;SDS011;11223;49.968;9.062;2023-03-01T03:31:59;10.10;;;7.37;;
22113;SDS011;11223;49.968;9.062;2023-03-01T03:34:25;9.97;;;7.10;;
22113;SDS011;11223;49.968;9.062;2023-03-01T03:36:54;6.60;;;5.93;;
22113;SDS011;11223;49.968;9.062;2023-03-01T03:39:24;11.68;;;7.30;;
22113;SDS011;11223;49.968;9.062;2023-03-01T03:41:51;10.85;;;6.65;;
22113;SDS011;11223;49.968;9.062;2023-03-01T03:44:18;9.52;;;7.28;;
22113;SDS011;11223;49.968;9.062;2023-03-01T03:46:44;12.40;;;7.50;;
22113;SDS011;11223;49.968;9.062;2023-03-01T03:49:09;10.43;;;7.20;;
22113;SDS011;11223;49.968;9.062;2023-03-01T03:51:35;9.53;;;7.37;;
22113;SDS011;11223;49.968;9.062;2023-03-01T03:54:01;8.70;;;7.17;;
22113;SDS011;11223;49.968;9.062;2023-03-01T03:56:26;8.63;;;7.47;;
22113;SDS011;11223;49.968;9.062;2023-03-01T03:58:52;8.50;;;6.87;;
22113;SDS011;11223;49.968;9.062;2023-03-01T04:01:18;12.20;;;8.23;;
22113;SDS011;11223;49.968;9.062;2023-03-01T04:03:44;9.10;;;7.05;;
22113;SDS011;11223;49.968;9.062;2023-03-01T04:06:11;12.77;;;7.07;;
22113;SDS011;11223;49.968;9.062;2023-03-01T04:08:38;10.40;;;7.82;;
22113;SDS011;11223;49.968;9.062;2023-03-01T04:11:04;14.75;;;8.32;;
22113;SDS011;11223;49.968;9.062;2023-03-01T04:13:49;12.00;;;7.28;;
22113;SDS011;11223;49.968;9.062;2023-03-01T04:16:16;11.55;;;7.78;;
22113;SDS011;11223;49.968;9.062;2023-03-01T04:18:42;9.18;;;8.15;;
22113;SDS011;11223;49.968;9.062;2023-03-01T04:21:08;10.43;;;6.80;;
22113;SDS011;11223;49.968;9.062;2023-03-01T04:23:34;10.93;;;9.07;;
22113;SDS011;11223;49.968;9.062;2023-03-01T04:26:00;10.98;;;8.43;;
22113;SDS011;11223;49.968;9.062;2023-03-01T04:28:32;12.83;;;8.17;;
22113;SDS011;11223;49.968;9.062;2023-03-01T04:31:02;12.15;;;8.63;;
22113;SDS011;11223;49.968;9.062;2023-03-01T04:33:41;12.45;;;8.57;;
22113;SDS011;11223;49.968;9.062;2023-03-01T04:36:09;9.30;;;6.65;;
22113;SDS011;11223;49.968;9.062;2023-03-01T04:38:37;10.80;;;7.57;;
22113;SDS011;11223;49.968;9.062;2023-03-01T04:41:04;11.75;;;8.02;;
22113;SDS011;11223;49.968;9.062;2023-03-01T04:43:31;9.48;;;7.22;;
22113;SDS011;11223;49.968;9.062;2023-03-01T04:46:04;12.13;;;8.63;;
22113;SDS011;11223;49.968;9.062;2023-03-01T04:48:35;12.85;;;8.98;;
22113;SDS011;11223;49.968;9.062;2023-03-01T04:51:02;13.52;;;8.55;;
22113;SDS011;11223;49.968;9.062;2023-03-01T04:53:29;11.90;;;8.38;;
22113;SDS011;11223;49.968;9.062;2023-03-01T04:55:55;15.70;;;9.68;;
22113;SDS011;11223;49.968;9.062;2023-03-01T04:58:22;14.23;;;10.55;;
22113;SDS011;11223;49.968;9.062;2023-03-01T05:00:49;12.15;;;9.25;;
22113;SDS011;11223;49.968;9.062;2023-03-01T05:03:14;17.10;;;9.20;;
22113;SDS011;11223;49.968;9.062;2023-03-01T05:05:43;12.30;;;7.82;;
22113;SDS011;11223;49.968;9.062;2023-03-01T05:08:09;14.55;;;7.82;;
22113;SDS011;11223;49.968;9.062;2023-03-01T05:10:42;10.75;;;7.45;;
22113;SDS011;11223;49.968;9.062;2023-03-01T05:13:10;12.93;;;9.80;;
22113;SDS011;11223;49.968;9.062;2023-03-01T05:15:38;10.15;;;8.30;;
22113;SDS011;11223;49.968;9.062;2023-03-01T05:18:04;8.82;;;7.60;;
22113;SDS011;11223;49.968;9.062;2023-03-01T05:20:36;13.40;;;9.23;;
22113;SDS011;11223;49.968;9.062;2023-03-01T05:23:02;20.98;;;9.35;;
22113;SDS011;11223;49.968;9.062;2023-03-01T05:25:30;12.15;;;8.40;;
22113;SDS011;11223;49.968;9.062;2023-03-01T05:27:57;12.70;;;8.00;;
22113;SDS011;11223;49.968;9.062;2023-03-01T05:30:24;10.88;;;8.00;;
22113;SDS011;11223;49.968;9.062;2023-03-01T05:32:50;11.87;;;8.13;;
22113;SDS011;11223;49.968;9.062;2023-03-01T05:35:20;11.57;;;8.30;;
22113;SDS011;11223;49.968;9.062;2023-03-01T05:37:47;12.52;;;8.57;;
22113;SDS011;11223;49.968;9.062;2023-03-01T05:40:20;15.73;;;8.82;;
22113;SDS011;11223;49.968;9.062;2023-03-01T05:42:49;14.48;;;8.80;;
22113;SDS011;11223;49.968;9.062;2023-03-01T05:45:18;13.20;;;10.35;;
22113;SDS011;11223;49.968;9.062;2023-03-01T05:47:45;15.57;;;10.90;;
22113;SDS011;11223;49.968;9.062;2023-03-01T05:50:12;17.65;;;9.50;;
22113;SDS011;11223;49.968;9.062;2023-03-01T05:52:43;12.95;;;9.63;;
22113;SDS011;11223;49.968;9.062;2023-03-01T05:55:10;17.40;;;11.65;;
22113;SDS011;11223;49.968;9.062;2023-03-01T05:57:36;16.97;;;11.37;;
22113;SDS011;11223;49.968;9.062;2023-03-01T06:00:02;18.97;;;11.50;;
22113;SDS011;11223;49.968;9.062;2023-03-01T06:02:28;16.42;;;11.35;;
22113;SDS011;11223;49.968;9.062;2023-03-01T06:04:54;18.80;;;10.90;;
22113;SDS011;11223;49.968;9.062;2023-03-01T06:07:20;14.73;;;9.07;;
22113;SDS011;11223;49.968;9.062;2023-03-01T06:09:46;15.63;;;9.67;;
22113;SDS011;11223;49.968;9.062;2023-03-01T06:12:12;13.07;;;9.00;;
22113;SDS011;11223;49.968;9.062;2023-03-01T06:14:37;16.40;;;8.30;;
22113;SDS011;11223;49.968;9.062;2023-03-01T06:17:03;13.20;;;8.20;;
22113;SDS011;11223;49.968;9.062;2023-03-01T06:19:29;13.43;;;8.90;;
22113;SDS011;11223;49.968;9.062;2023-03-01T06:21:54;14.57;;;9.50;;
22113;SDS011;11223;49.968;9.062;2023-03-01T06:24:20;20.30;;;11.77;;
22113;SDS011;11223;49.968;9.062;2023-03-01T06:26:45;17.77;;;10.50;;
22113;SDS011;11223;49.968;9.062;2023-03-01T06:29:11;19.67;;;9.53;;
22113;SDS011;11223;49.968;9.062;2023-03-01T06:31:36;15.50;;;9.83;;
22113;SDS011;11223;49.968;9.062;2023-03-01T06:34:02;16.70;;;10.87;;
22113;SDS011;11223;49.968;9.062;2023-03-01T06:36:28;12.40;;;9.77;;
22113;SDS011;11223;49.968;9.062;2023-03-01T06:38:53;16.47;;;9.87;;
22113;SDS011;11223;49.968;9.062;2023-03-01T06:41:19;20.07;;;10.93;;
22113;SDS011;11223;49.968;9.062;2023-03-01T06:43:45;16.83;;;10.70;;
22113;SDS011;11223;49.968;9.062;2023-03-01T06:46:10;11.10;;;8.70;;
22113;SDS011;11223;49.968;9.062;2023-03-01T06:48:36;16.03;;;9.90;;
22113;SDS011;11223;49.968;9.062;2023-03-01T06:51:01;12.00;;;9.60;;
22113;SDS011;11223;49.968;9.062;2023-03-01T06:53:28;14.93;;;10.20;;
22113;SDS011;11223;49.968;9.062;2023-03-01T06:55:57;14.18;;;10.43;;
22113;SDS011;11223;49.968;9.062;2023-03-01T06:58:24;15.55;;;9.98;;
22113;SDS011;11223;49.968;9.062;2023-03-01T07:00:50;14.63;;;10.43;;
22113;SDS011;11223;49.968;9.062;2023-03-01T07:03:16;15.53;;;11.00;;
22113;SDS011;11223;49.968;9.062;2023-03-01T07:05:42;14.27;;;11.37;;
22113;SDS011;11223;49.968;9.062;2023-03-01T07:08:08;15.50;;;11.33;;
22113;SDS011;11223;49.968;9.062;2023-03-01T07:10:33;18.97;;;12.00;;
22113;SDS011;11223;49.968;9.062;2023-03-01T07:12:59;13.23;;;10.23;;
22113;SDS011;11223;49.968;9.062;2023-03-01T07:15:25;21.10;;;13.60;;
22113;SDS011;11223;49.968;9.062;2023-03-01T07:17:53;17.45;;;10.68;;
22113;SDS011;11223;49.968;9.062;2023-03-01T07:20:19;14.47;;;11.60;;
22113;SDS011;11223;49.968;9.062;2023-03-01T07:22:50;17.45;;;12.48;;
22113;SDS011;11223;49.968;9.062;2023-03-01T07:25:19;12.43;;;11.00;;
22113;SDS011;11223;49.968;9.062;2023-03-01T07:27:49;12.40;;;9.80;;
22113;SDS011;11223;49.968;9.062;2023-03-01T07:30:18;15.95;;;8.27;;
22113;SDS011;11223;49.968;9.062;2023-03-01T07:32:44;12.20;;;9.38;;
22113;SDS011;11223;49.968;9.062;2023-03-01T07:35:10;14.93;;;10.32;;
22113;SDS011;11223;49.968;9.062;2023-03-01T07:37:36;14.00;;;9.80;;
22113;SDS011;11223;49.968;9.062;2023-03-01T07:40:02;13.37;;;10.80;;
22113;SDS011;11223;49.968;9.062;2023-03-01T07:42:28;17.27;;;10.50;;
22113;SDS011;11223;49.968;9.062;2023-03-01T07:44:53;16.53;;;9.10;;
22113;SDS011;11223;49.968;9.062;2023-03-01T07:47:19;17.67;;;11.40;;
22113;SDS011;11223;49.968;9.062;2023-03-01T07:49:44;15.27;;;10.83;;
22113;SDS011;11223;49.968;9.062;2023-03-01T07:52:10;14.20;;;10.37;;
22113;SDS011;11223;49.968;9.062;2023-03-01T07:54:36;14.30;;;10.70;;
22113;SDS011;11223;49.968;9.062;2023-03-01T07:57:02;15.15;;;11.15;;
22113;SDS011;11223;49.968;9.062;2023-03-01T07:59:28;15.03;;;12.47;;
22113;SDS011;11223;49.968;9.062;2023-03-01T08:01:58;12.30;;;9.38;;
22113;SDS011;11223;49.968;9.062;2023-03-01T08:04:23;13.68;;;10.15;;
22113;SDS011;11223;49.968;9.062;2023-03-01T08:06:52;13.52;;;10.57;;
22113;SDS011;11223;49.968;9.062;2023-03-01T08:09:18;11.50;;;10.30;;
22113;SDS011;11223;49.968;9.062;2023-03-01T08:11:44;16.00;;;9.03;;
22113;SDS011;11223;49.968;9.062;2023-03-01T08:14:09;11.10;;;9.67;;
22113;SDS011;11223;49.968;9.062;2023-03-01T08:16:38;12.85;;;9.07;;
22113;SDS011;11223;49.968;9.062;2023-03-01T08:19:04;15.77;;;10.30;;
22113;SDS011;11223;49.968;9.062;2023-03-01T08:21:31;12.75;;;9.40;;
22113;SDS011;11223;49.968;9.062;2023-03-01T08:23:59;12.35;;;9.95;;
22113;SDS011;11223;49.968;9.062;2023-03-01T08:26:29;12.18;;;10.60;;
22113;SDS011;11223;49.968;9.062;2023-03-01T08:28:54;11.15;;;10.15;;
22113;SDS011;11223;49.968;9.062;2023-03-01T08:31:26;10.82;;;8.90;;
22113;SDS011;11223;49.968;9.062;2023-03-01T08:33:57;14.80;;;13.40;;
22113;SDS011;11223;49.968;9.062;2023-03-01T08:36:26;12.70;;;11.50;;
22113;SDS011;11223;49.968;9.062;2023-03-01T08:38:53;13.13;;;11.68;;
22113;SDS011;11223;49.968;9.062;2023-03-01T08:41:19;14.37;;;13.00;;
22113;SDS011;11223;49.968;9.062;2023-03-01T08:43:45;12.27;;;11.18;;
22113;SDS011;11223;49.968;9.062;2023-03-01T08:46:11;12.80;;;10.87;;
22113;SDS011;11223;49.968;9.062;2023-03-01T08:48:37;11.85;;;10.68;;
22113;SDS011;11223;49.968;9.062;2023-03-01T08:51:16;11.43;;;10.33;;
22113;SDS011;11223;49.968;9.062;2023-03-01T08:53:43;12.73;;;10.20;;
22113;SDS011;11223;49.968;9.062;2023-03-01T08:56:09;11.63;;;10.38;;
22113;SDS011;11223;49.968;9.062;2023-03-01T08:58:35;11.98;;;10.60;;
22113;SDS011;11223;49.968;9.062;2023-03-01T09:01:09;13.32;;;11.85;;
22113;SDS011;11223;49.968;9.062;2023-03-01T09:03:35;12.13;;;10.20;;
22113;SDS011;11223;49.968;9.062;2023-03-01T09:06:02;11.73;;;10.63;;
22113;SDS011;11223;49.968;9.062;2023-03-01T09:08:30;15.25;;;13.00;;
22113;SDS011;11223;49.968;9.062;2023-03-01T09:10:56;12.18;;;10.88;;
22113;SDS011;11223;49.968;9.062;2023-03-01T09:13:21;13.87;;;11.80;;
22113;SDS011;11223;49.968;9.062;2023-03-01T09:15:50;13.27;;;12.07;;
22113;SDS011;11223;49.968;9.062;2023-03-01T09:18:16;10.70;;;9.60;;
22113;SDS011;11223;49.968;9.062;2023-03-01T09:20:42;11.43;;;10.43;;
22113;SDS011;11223;49.968;9.062;2023-03-01T09:23:07;12.40;;;11.17;;
22113;SDS011;11223;49.968;9.062;2023-03-01T09:25:34;13.70;;;12.17;;
22113;SDS011;11223;49.968;9.062;2023-03-01T09:27:59;12.80;;;11.60;;
22113;SDS011;11223;49.968;9.062;2023-03-01T09:30:25;13.90;;;12.53;;
22113;SDS011;11223;49.968;9.062;2023-03-01T09:32:50;13.77;;;11.97;;
22113;SDS011;11223;49.968;9.062;2023-03-01T09:35:17;13.70;;;12.50;;
22113;SDS011;11223;49.968;9.062;2023-03-01T09:37:44;12.77;;;11.48;;
22113;SDS011;11223;49.968;9.062;2023-03-01T09:40:14;13.82;;;12.50;;
22113;SDS011;11223;49.968;9.062;2023-03-01T09:42:46;13.15;;;11.75;;
22113;SDS011;11223;49.968;9.062;2023-03-01T09:45:52;11.80;;;10.60;;
22113;SDS011;11223;49.968;9.062;2023-03-01T09:48:16;14.63;;;11.18;;
22113;SDS011;11223;49.968;9.062;2023-03-01T09:50:48;11.85;;;10.75;;
22113;SDS011;11223;49.968;9.062;2023-03-01T09:53:16;12.38;;;11.07;;
22113;SDS011;11223;49.968;9.062;2023-03-01T09:56:00;13.45;;;11.30;;
22113;SDS011;11223;49.968;9.062;2023-03-01T09:58:51;12.35;;;11.13;;
22113;SDS011;11223;49.968;9.062;2023-03-01T10:01:29;13.25;;;10.77;;
22113;SDS011;11223;49.968;9.062;2023-03-01T10:04:05;13.45;;;12.02;;
22113;SDS011;11223;49.968;9.062;2023-03-01T10:06:45;14.35;;;11.23;;
22113;SDS011;11223;49.968;9.062;2023-03-01T10:09:19;11.43;;;10.40;;
22113;SDS011;11223;49.968;9.062;2023-03-01T10:11:48;12.18;;;11.02;;
22113;SDS011;11223;49.968;9.062;2023-03-01T10:14:18;13.15;;;11.65;;
22113;SDS011;11223;49.968;9.062;2023-03-01T10:17:02;12.23;;;10.85;;
22113;SDS011;11223;49.968;9.062;2023-03-01T10:19:44;12.55;;;11.45;;
22113;SDS011;11223;49.968;9.062;2023-03-01T10:22:13;11.48;;;10.27;;
22113;SDS011;11223;49.968;9.062;2023-03-01T10:24:48;12.38;;;10.98;;
22113;SDS011;11223;49.968;9.062;2023-03-01T10:30:32;12.30;;;10.68;;
22113;SDS011;11223;49.968;9.062;2023-03-01T10:33:03;11.25;;;10.20;;
22113;SDS011;11223;49.968;9.062;2023-03-01T10:35:39;11.65;;;10.50;;
22113;SDS011;11223;49.968;9.062;2023-03-01T10:38:10;11.98;;;10.88;;
22113;SDS011;11223;49.968;9.062;2023-03-01T10:40:54;13.43;;;12.13;;
22113;SDS011;11223;49.968;9.062;2023-03-01T10:43:47;12.02;;;10.68;;
22113;SDS011;11223;49.968;9.062;2023-03-01T10:46:37;11.38;;;10.27;;
22113;SDS011;11223;49.968;9.062;2023-03-01T10:49:07;10.35;;;9.38;;
22113;SDS011;11223;49.968;9.062;2023-03-01T10:51:33;10.30;;;9.30;;
22113;SDS011;11223;49.968;9.062;2023-03-01T10:53:58;10.63;;;9.53;;
22113;SDS011;11223;49.968;9.062;2023-03-01T10:56:24;10.00;;;9.00;;
22113;SDS011;11223;49.968;9.062;2023-03-01T10:58:57;8.85;;;8.05;;
22113;SDS011;11223;49.968;9.062;2023-03-01T11:01:26;9.02;;;7.55;;
22113;SDS011;11223;49.968;9.062;2023-03-01T11:04:03;9.50;;;8.55;;
22113;SDS011;11223;49.968;9.062;2023-03-01T11:06:36;8.73;;;7.85;;
22113;SDS011;11223;49.968;9.062;2023-03-01T11:09:20;9.93;;;8.80;;
22113;SDS011;11223;49.968;9.062;2023-03-01T11:11:54;9.23;;;8.20;;
22113;SDS011;11223;49.968;9.062;2023-03-01T11:14:22;7.78;;;6.93;;
22113;SDS011;11223;49.968;9.062;2023-03-01T11:17:11;8.85;;;8.05;;
22113;SDS011;11223;49.968;9.062;2023-03-01T11:19:38;10.13;;;7.47;;
22113;SDS011;11223;49.968;9.062;2023-03-01T11:24:46;8.82;;;7.07;;
22113;SDS011;11223;49.968;9.062;2023-03-01T11:30:00;7.10;;;6.47;;
22113;SDS011;11223;49.968;9.062;2023-03-01T11:32:36;8.48;;;7.55;;
22113;SDS011;11223;49.968;9.062;2023-03-01T11:35:15;7.43;;;6.78;;
22113;SDS011;11223;49.968;9.062;2023-03-01T11:37:55;8.13;;;7.32;;
22113;SDS011;11223;49.968;9.062;2023-03-01T11:43:05;7.57;;;6.88;;
22113;SDS011;11223;49.968;9.062;2023-03-01T11:45:51;7.90;;;7.13;;
22113;SDS011;11223;49.968;9.062;2023-03-01T11:51:18;10.15;;;6.85;;
22113;SDS011;11223;49.968;9.062;2023-03-01T11:53:57;8.48;;;7.50;;
22113;SDS011;11223;49.968;9.062;2023-03-01T11:56:40;8.32;;;6.88;;
22113;SDS011;11223;49.968;9.062;2023-03-01T12:04:57;9.82;;;7.93;;
22113;SDS011;11223;49.968;9.062;2023-03-01T12:10:23;7.93;;;7.13;;
22113;SDS011;11223;49.968;9.062;2023-03-01T12:16:00;7.22;;;6.53;;
22113;SDS011;11223;49.968;9.062;2023-03-01T12:21:49;8.07;;;7.38;;
22113;SDS011;11223;49.968;9.062;2023-03-01T12:30:36;8.80;;;8.00;;
22113;SDS011;11223;49.968;9.062;2023-03-01T12:42:27;7.50;;;6.80;;
22113;SDS011;11223;49.968;9.062;2023-03-01T12:48:15;9.90;;;9.00;;
22113;SDS011;11223;49.968;9.062;2023-03-01T12:50:55;9.57;;;8.70;;
22113;SDS011;11223;49.968;9.062;2023-03-01T12:53:27;9.30;;;8.30;;
22113;SDS011;11223;49.968;9.062;2023-03-01T12:55:58;10.40;;;9.07;;
22113;SDS011;11223;49.968;9.062;2023-03-01T12:58:39;8.35;;;7.30;;
22113;SDS011;11223;49.968;9.062;2023-03-01T13:01:22;7.95;;;7.35;;
22113;SDS011;11223;49.968;9.062;2023-03-01T13:06:29;9.67;;;7.80;;
22113;SDS011;11223;49.968;9.062;2023-03-01T13:11:41;8.70;;;7.90;;
22113;SDS011;11223;49.968;9.062;2023-03-01T13:16:46;9.30;;;7.72;;
22113;SDS011;11223;49.968;9.062;2023-03-01T13:19:21;7.88;;;7.07;;
22113;SDS011;11223;49.968;9.062;2023-03-01T13:21:49;8.43;;;7.55;;
22113;SDS011;11223;49.968;9.062;2023-03-01T13:24:49;8.70;;;7.90;;
22113;SDS011;11223;49.968;9.062;2023-03-01T13:29:47;8.52;;;7.72;;
22113;SDS011;11223;49.968;9.062;2023-03-01T13:32:28;8.60;;;7.90;;
22113;SDS011;11223;49.968;9.062;2023-03-01T13:37:51;8.55;;;7.75;;
22113;SDS011;11223;49.968;9.062;2023-03-01T13:42:46;7.70;;;6.97;;
22113;SDS011;11223;49.968;9.062;2023-03-01T13:48:02;8.57;;;6.63;;
22113;SDS011;11223;49.968;9.062;2023-03-01T13:50:48;8.95;;;7.28;;
22113;SDS011;11223;49.968;9.062;2023-03-01T13:53:20;8.27;;;7.10;;
22113;SDS011;11223;49.968;9.062;2023-03-01T13:56:06;6.78;;;6.18;;
22113;SDS011;11223;49.968;9.062;2023-03-01T13:58:46;7.60;;;6.90;;
22113;SDS011;11223;49.968;9.062;2023-03-01T14:01:28;7.45;;;6.75;;
22113;SDS011;11223;49.968;9.062;2023-03-01T14:03:55;8.15;;;7.30;;
22113;SDS011;11223;49.968;9.062;2023-03-01T14:06:25;7.28;;;6.68;;
22113;SDS011;11223;49.968;9.062;2023-03-01T14:09:00;7.18;;;6.15;;
22113;SDS011;11223;49.968;9.062;2023-03-01T14:20:29;10.05;;;8.13;;
22113;SDS011;11223;49.968;9.062;2023-03-01T14:22:58;8.00;;;7.18;;
22113;SDS011;11223;49.968;9.062;2023-03-01T14:25:29;7.15;;;6.55;;
22113;SDS011;11223;49.968;9.062;2023-03-01T14:30:52;8.63;;;7.25;;
22113;SDS011;11223;49.968;9.062;2023-03-01T14:33:20;8.27;;;7.43;;
22113;SDS011;11223;49.968;9.062;2023-03-01T14:35:53;8.07;;;7.22;;
22113;SDS011;11223;49.968;9.062;2023-03-01T14:38:22;9.93;;;8.65;;
22113;SDS011;11223;49.968;9.062;2023-03-01T14:41:00;9.27;;;8.20;;
22113;SDS011;11223;49.968;9.062;2023-03-01T14:43:30;8.70;;;7.10;;
22113;SDS011;11223;49.968;9.062;2023-03-01T14:45:56;7.03;;;6.45;;
22113;SDS011;11223;49.968;9.062;2023-03-01T14:48:22;7.83;;;7.03;;
22113;SDS011;11223;49.968;9.062;2023-03-01T14:50:48;7.93;;;7.30;;
22113;SDS011;11223;49.968;9.062;2023-03-01T14:53:25;9.05;;;8.15;;
22113;SDS011;11223;49.968;9.062;2023-03-01T14:55:59;9.23;;;8.40;;
22113;SDS011;11223;49.968;9.062;2023-03-01T14:58:31;11.40;;;9.15;;
22113;SDS011;11223;49.968;9.062;2023-03-01T15:00:59;9.00;;;8.20;;
22113;SDS011;11223;49.968;9.062;2023-03-01T15:06:02;10.38;;;9.35;;
22113;SDS011;11223;49.968;9.062;2023-03-01T15:08:30;9.80;;;8.90;;
22113;SDS011;11223;49.968;9.062;2023-03-01T15:13:33;8.88;;;8.07;;
22113;SDS011;11223;49.968;9.062;2023-03-01T15:16:13;10.48;;;9.48;;
22113;SDS011;11223;49.968;9.062;2023-03-01T15:19:00;12.85;;;11.57;;
22113;SDS011;11223;49.968;9.062;2023-03-01T15:21:27;10.27;;;8.82;;
22113;SDS011;11223;49.968;9.062;2023-03-01T15:23:57;10.60;;;9.60;;
22113;SDS011;11223;49.968;9.062;2023-03-01T15:26:45;10.07;;;9.18;;
22113;SDS011;11223;49.968;9.062;2023-03-01T15:29:26;9.65;;;8.65;;
22113;SDS011;11223;49.968;9.062;2023-03-01T15:34:35;10.18;;;9.20;;
22113;SDS011;11223;49.968;9.062;2023-03-01T15:37:03;9.35;;;8.45;;
22113;SDS011;11223;49.968;9.062;2023-03-01T15:39:34;10.23;;;9.30;;
22113;SDS011;11223;49.968;9.062;2023-03-01T15:44:32;10.13;;;9.23;;
22113;SDS011;11223;49.968;9.062;2023-03-01T15:47:02;10.50;;;9.50;;
22113;SDS011;11223;49.968;9.062;2023-03-01T15:49:40;10.05;;;9.05;;
22113;SDS011;11223;49.968;9.062;2023-03-01T15:52:12;10.20;;;9.20;;
22113;SDS011;11223;49.968;9.062;2023-03-01T15:54:45;12.35;;;11.35;;
22113;SDS011;11223;49.968;9.062;2023-03-01T15:57:14;12.43;;;11.23;;
22113;SDS011;11223;49.968;9.062;2023-03-01T15:59:40;12.75;;;11.50;;
22113;SDS011;11223;49.968;9.062;2023-03-01T16:02:10;13.93;;;11.77;;
22113;SDS011;11223;49.968;9.062;2023-03-01T16:04:37;11.10;;;10.00;;
22113;SDS011;11223;49.968;9.062;2023-03-01T16:07:03;10.55;;;9.50;;
22113;SDS011;11223;49.968;9.062;2023-03-01T16:09:29;11.27;;;10.17;;
22113;SDS011;11223;49.968;9.062;2023-03-01T16:11:55;10.43;;;9.37;;
22113;SDS011;11223;49.968;9.062;2023-03-01T16:14:21;10.73;;;9.65;;
22113;SDS011;11223;49.968;9.062;2023-03-01T16:16:47;11.15;;;10.05;;
22113;SDS011;11223;49.968;9.062;2023-03-01T16:19:14;10.90;;;9.80;;
22113;SDS011;11223;49.968;9.062;2023-03-01T16:21:40;11.13;;;9.98;;
22113;SDS011;11223;49.968;9.062;2023-03-01T16:24:07;12.88;;;11.57;;
22113;SDS011;11223;49.968;9.062;2023-03-01T16:26:33;12.27;;;11.03;;
22113;SDS011;11223;49.968;9.062;2023-03-01T16:29:01;13.70;;;12.38;;
22113;SDS011;11223;49.968;9.062;2023-03-01T16:31:26;13.13;;;11.90;;